Time;durP1;ratioP1;P1;durP2;ratioP2;P2;SDS_P1;SDS_P2;PMS_P1;PMS_P2;Temp;Humidity;BMP_temperature;BMP_pressure;BME280_temperature;BME280_humidity;BME280_pressure;Samples;Min_cycle;Max_cycle;Signal;HPM_P1;HPM_P2
2023/05/18 00:02:14;;;;;;;7.82;2.03;;;;;;;6.83;76.78;101634.66;5050679;28;20516;-73
2023/05/18 00:05:18;;;;;;;8.43;2.35;;;;;;;6.82;76.92;101632.06;5052517;28;20044;-73
2023/05/18 00:08:21;;;;;;;8.10;1.98;;;;;;;6.80;76.38;101639.91;5051424;28;20076;-73
2023/05/18 00:11:24;;;;;;;;;;;;;;;6.78;76.59;101626.06;5050787;28;20071;-73
2023/05/18 00:14:28;;;;;;;7.75;2.10;;;;;;;6.74;76.67;101630.47;5051725;28;19923;-73
2023/05/18 00:17:31;;;;;;;;;;;;;;;6.69;76.74;101632.28;5056593;28;20052;-73
2023/05/18 00:20:35;;;;;;;6.95;2.08;;;;;;;6.67;76.56;101631.50;5056262;28;20395;-72
2023/05/18 00:23:39;;;;;;;8.20;1.98;;;;;;;6.53;76.92;101625.66;5056324;28;20036;-73
2023/05/18 00:26:44;;;;;;;8.10;2.33;;;;;;;6.54;76.90;101627.41;5056209;28;20119;-73
2023/05/18 00:29:48;;;;;;;8.07;1.95;;;;;;;6.56;77.23;101632.56;5056043;28;20171;-73
2023/05/18 00:32:51;;;;;;;;;;;;;;;6.58;77.28;101638.59;5056484;28;20098;-73
2023/05/18 00:35:56;;;;;;;10.20;2.00;;;;;;;6.58;77.30;101638.59;5056079;28;20530;-73
2023/05/18 00:39:00;;;;;;;5.70;2.00;;;;;;;6.56;76.92;101633.41;5043809;28;20144;-73
2023/05/18 00:42:03;;;;;;;6.97;2.33;;;;;;;6.41;77.11;101633.66;5043526;28;20520;-73
2023/05/18 00:45:06;;;;;;;;;;;;;;;6.19;77.78;101628.88;5044126;28;20099;-73
2023/05/18 00:48:09;;;;;;;5.95;1.83;;;;;;;6.24;77.67;101629.63;5056064;28;20002;-73
2023/05/18 00:51:13;;;;;;;4.97;1.98;;;;;;;6.26;77.31;101632.22;5040283;28;20111;-73
2023/05/18 00:54:16;;;;;;;10.02;2.60;;;;;;;6.28;77.79;101635.63;5043550;28;20492;-73
2023/05/18 00:57:20;;;;;;;;;;;;;;;6.23;77.88;101633.13;5043927;28;20060;-72
2023/05/18 01:00:23;;;;;;;6.70;2.03;;;;;;;6.17;77.77;101633.22;5055782;28;20521;-73
2023/05/18 01:03:29;;;;;;;6.72;2.70;;;;;;;6.07;77.97;101633.41;5043272;28;20048;-73
2023/05/18 01:06:34;;;;;;;7.95;2.15;;;;;;;6.04;77.98;101642.94;5055395;28;20113;-73
2023/05/18 01:09:37;;;;;;;11.38;2.72;;;;;;;5.96;78.33;101638.72;5043213;28;20048;-72
2023/05/18 01:13:00;;;;;;;;;;;;;;;5.90;78.72;101634.44;5055980;28;20039;-73
2023/05/18 01:16:10;;;;;;;6.70;2.15;;;;;;;5.93;78.35;101633.59;5055486;28;20384;-73
2023/05/18 01:19:52;;;;;;;13.88;2.38;;;;;;;5.87;78.50;101641.44;5055346;28;20051;-73
2023/05/18 01:23:21;;;;;;;8.20;2.03;;;;;;;6.05;78.66;101636.00;4997616;28;20095;-73
2023/05/18 01:26:30;;;;;;;11.15;2.10;;;;;;;5.94;77.72;101632.72;5055098;28;20529;-73
2023/05/18 01:29:37;;;;;;;9.55;1.90;;;;;;;5.83;77.76;101644.06;5043267;28;20637;-73
2023/05/18 01:32:41;;;;;;;6.95;2.47;;;;;;;5.72;77.73;101635.59;5055418;28;20048;-73
2023/05/18 01:35:47;;;;;;;8.05;1.80;;;;;;;5.72;78.34;101642.53;5054900;28;20091;-73
2023/05/18 01:38:52;;;;;;;7.95;2.17;;;;;;;5.77;78.62;101641.56;5055047;28;20040;-73
2023/05/18 01:42:02;;;;;;;7.30;1.85;;;;;;;5.81;78.36;101645.84;5054952;28;20048;-73
2023/05/18 01:45:15;;;;;;;5.45;1.95;;;;;;;5.74;78.37;101639.03;5042633;28;20123;-73
2023/05/18 01:48:23;;;;;;;6.00;1.75;;;;;;;5.74;78.14;101640.75;5042562;28;20515;-73
2023/05/18 01:51:32;;;;;;;5.88;2.00;;;;;;;5.61;78.30;101634.88;5054833;28;20106;-73
2023/05/18 01:54:40;;;;;;;5.30;2.10;;;;;;;5.60;78.62;101638.38;5054754;28;20055;-73
2023/05/18 01:57:45;;;;;;;5.72;1.88;;;;;;;5.57;78.72;101647.03;5054762;28;20099;-73
2023/05/18 02:00:51;;;;;;;6.00;1.60;;;;;;;5.73;78.22;101639.06;5042082;28;20519;-73
2023/05/18 02:03:55;;;;;;;8.30;2.53;;;;;;;5.55;78.30;101642.75;5054517;28;20126;-73
2023/05/18 02:06:58;;;;;;;8.13;2.13;;;;;;;5.47;78.75;101635.09;5042239;28;20075;-73
2023/05/18 02:10:01;;;;;;;7.70;1.98;;;;;;;5.54;78.57;101633.25;5049802;28;20072;-73
2023/05/18 02:13:05;;;;;;;;;;;;;;;5.42;78.53;101634.28;5042437;28;20048;-73
2023/05/18 02:16:09;;;;;;;7.60;2.20;;;;;;;5.43;78.92;101638.59;5042005;28;19971;-74
2023/05/18 02:19:16;;;;;;;5.63;2.25;;;;;;;5.34;78.88;101629.19;5041835;28;20136;-73
2023/05/18 02:22:19;;;;;;;8.63;2.28;;;;;;;5.28;78.77;101624.09;5054280;28;20052;-73
2023/05/18 02:25:22;;;;;;;9.95;2.47;;;;;;;5.19;79.20;101631.13;5054011;28;20090;-73
2023/05/18 02:28:25;;;;;;;;;;;;;;;5.11;79.43;101636.41;5042140;28;20091;-73
2023/05/18 02:31:29;;;;;;;7.70;1.67;;;;;;;5.27;78.55;101642.28;5053931;28;19920;-73
2023/05/18 02:34:34;;;;;;;6.68;1.73;;;;;;;5.20;78.69;101640.59;5053884;28;20127;-73
2023/05/18 02:37:42;;;;;;;10.65;2.08;;;;;;;5.08;79.11;101636.44;5041598;28;20106;-73
2023/05/18 02:40:47;;;;;;;8.10;1.55;;;;;;;5.06;79.32;101638.19;5052931;28;20056;-73
2023/05/18 02:43:52;;;;;;;7.38;1.63;;;;;;;5.06;79.21;101648.56;5041448;28;20102;-73
2023/05/18 02:46:55;;;;;;;7.25;1.90;;;;;;;5.06;79.00;101640.78;5035809;28;20457;-73
2023/05/18 02:49:59;;;;;;;4.35;1.50;;;;;;;5.15;79.16;101643.28;5053554;28;20179;-73
2023/05/18 02:53:02;;;;;;;5.30;1.73;;;;;;;5.11;79.05;101646.78;5041392;28;20106;-73
2023/05/18 02:56:06;;;;;;;8.10;1.85;;;;;;;5.11;79.07;101644.19;5037121;28;20098;-74
2023/05/18 02:59:23;;;;;;;5.82;1.88;;;;;;;5.05;78.82;101633.91;5041293;28;20048;-73
2023/05/18 03:02:26;;;;;;;7.32;2.13;;;;;;;4.95;79.13;101638.31;5053336;28;20590;-73
2023/05/18 03:05:30;;;;;;;7.88;1.80;;;;;;;5.00;78.56;101640.84;5040970;28;20044;-73
2023/05/18 03:08:35;;;;;;;;;;;;;;;4.80;79.18;101641.94;5041442;28;20408;-74
2023/05/18 03:11:39;;;;;;;6.53;1.85;;;;;;;4.83;79.37;101641.91;5040877;28;19920;-73
2023/05/18 03:14:43;;;;;;;10.32;2.00;;;;;;;4.84;78.96;101646.19;5053055;28;20047;-74
2023/05/18 03:17:48;;;;;;;7.28;2.30;;;;;;;4.79;79.00;101649.75;5053504;28;20055;-74
2023/05/18 03:20:51;;;;;;;8.27;2.50;;;;;;;4.80;79.19;101641.94;5040782;28;20043;-73
2023/05/18 03:23:54;;;;;;;7.75;2.30;;;;;;;4.86;79.00;101641.88;5040722;28;20561;-74
2023/05/18 03:26:59;;;;;;;;;;;;;;;4.73;79.37;101645.47;5041067;28;20106;-73
2023/05/18 03:30:03;;;;;;;7.82;1.95;;;;;;;4.71;79.45;101649.78;5036256;28;20403;-74
2023/05/18 03:33:07;;;;;;;11.30;2.58;;;;;;;4.69;79.12;101646.38;5029521;28;20180;-73
2023/05/18 03:36:11;;;;;;;7.15;1.88;;;;;;;4.68;79.59;101652.41;5036977;28;20063;-73
2023/05/18 03:39:14;;;;;;;10.38;2.47;;;;;;;4.58;79.60;101645.63;5040525;28;20048;-73
2023/05/18 03:42:18;;;;;;;7.03;2.20;;;;;;;4.60;79.79;101651.66;5040902;28;20091;-73
2023/05/18 03:45:21;;;;;;;7.40;2.15;;;;;;;4.54;79.41;101660.31;5052795;28;20048;-73
2023/05/18 03:48:28;;;;;;;3.45;1.38;;;;;;;4.53;80.14;101652.56;5040530;28;20099;-74
2023/05/18 03:51:32;;;;;;;7.82;2.10;;;;;;;4.64;79.84;101643.81;5052429;28;20519;-74
2023/05/18 03:54:43;;;;;;;5.03;1.65;;;;;;;4.61;78.92;101649.03;5040279;28;20052;-74
2023/05/18 03:57:50;;;;;;;7.28;2.10;;;;;;;4.65;79.08;101655.03;5052229;28;20110;-73
2023/05/18 04:00:53;;;;;;;;;;;;;;;4.66;79.18;101660.22;5040319;28;20158;-74
2023/05/18 04:03:57;;;;;;;8.23;1.83;;;;;;;4.62;79.19;101658.50;5039195;28;19965;-72
2023/05/18 04:07:04;;;;;;;6.78;1.83;;;;;;;4.56;79.42;101660.28;5033927;28;20047;-72
2023/05/18 04:10:12;;;;;;;10.15;2.28;;;;;;;4.64;79.54;101655.91;5039544;28;20413;-72
2023/05/18 04:13:15;;;;;;;9.00;1.83;;;;;;;4.56;79.73;101657.72;5051908;28;20464;-72
2023/05/18 04:16:18;;;;;;;;;;;;;;;4.62;79.60;101662.84;5052187;28;20044;-72
2023/05/18 04:19:22;;;;;;;6.70;2.20;;;;;;;4.58;79.30;101669.78;5040028;28;19920;-73
2023/05/18 04:22:29;;;;;;;5.15;1.90;;;;;;;4.59;79.65;101665.44;5040048;28;20302;-73
2023/05/18 04:25:33;;;;;;;8.50;2.55;;;;;;;4.72;79.44;101659.28;5039976;28;20075;-73
2023/05/18 04:28:36;;;;;;;10.10;2.47;;;;;;;4.53;79.41;101663.78;5040312;28;20051;-73
2023/05/18 04:31:41;;;;;;;8.43;2.38;;;;;;;4.70;79.63;101668.81;5039989;28;20048;-73
2023/05/18 04:34:48;;;;;;;6.38;1.58;;;;;;;4.75;79.05;101672.19;5052192;28;20040;-73
2023/05/18 04:37:55;;;;;;;5.65;1.85;;;;;;;4.65;79.23;101668.84;5040702;28;20052;-73
2023/05/18 04:40:59;;;;;;;4.97;1.67;;;;;;;4.76;79.07;101673.09;5052271;28;20102;-73
2023/05/18 04:44:03;;;;;;;7.28;1.50;;;;;;;4.72;79.10;101669.63;5039902;28;20040;-73
2023/05/18 04:47:07;;;;;;;5.47;1.65;;;;;;;4.79;79.18;101676.50;5035830;28;20040;-73
2023/05/18 04:50:15;;;;;;;5.55;2.13;;;;;;;4.67;79.72;101674.03;5039956;28;20060;-73
2023/05/18 04:53:20;;;;;;;10.60;1.77;;;;;;;4.94;79.29;101674.59;5039717;28;20047;-73
2023/05/18 04:56:23;;;;;;;8.43;2.72;;;;;;;4.83;79.22;101673.00;5039275;28;20048;-73
2023/05/18 04:59:27;;;;;;;6.72;1.73;;;;;;;4.82;79.29;101681.66;5051935;28;20091;-73
2023/05/18 05:02:31;;;;;;;5.60;2.00;;;;;;;4.94;78.95;101677.19;5040060;28;20145;-73
2023/05/18 05:05:35;;;;;;;5.85;1.60;;;;;;;5.07;78.33;101676.19;5055501;28;20090;-73
2023/05/18 05:08:38;;;;;;;7.50;1.88;;;;;;;5.20;77.76;101672.59;5055610;28;20565;-73
2023/05/18 05:11:41;;;;;;;;;;;;;;;5.18;77.14;101678.69;5055485;28;20052;-73
2023/05/18 05:14:45;;;;;;;7.10;2.00;;;;;;;5.19;77.65;101668.28;5042842;28;20399;-73
2023/05/18 05:17:48;;;;;;;6.00;2.38;;;;;;;5.28;76.91;101668.16;5055742;28;20044;-72
2023/05/18 05:20:54;;;;;;;7.00;2.15;;;;;;;5.26;76.70;101672.50;5043208;28;20052;-72
2023/05/18 05:24:03;;;;;;;10.55;2.58;;;;;;;5.47;76.77;101678.31;5055349;28;20044;-73
2023/05/18 05:27:10;;;;;;;6.88;1.80;;;;;;;5.59;76.53;101673.84;5043279;28;20048;-72
2023/05/18 05:30:13;;;;;;;;;;;;;;;5.66;76.52;101672.00;5043278;28;20051;-72
2023/05/18 05:33:18;;;;;;;10.20;2.00;;;;;;;5.74;76.35;101672.78;5042904;28;19967;-72
2023/05/18 05:36:21;;;;;;;;;;;;;;;5.87;76.10;101677.78;5043222;28;20094;-74
2023/05/18 05:39:24;;;;;;;5.78;1.80;;;;;;;5.92;76.39;101678.56;5055189;28;20011;-74
2023/05/18 05:42:28;;;;;;;;;;;;;;;6.04;77.32;101678.44;5043065;28;20140;-72
2023/05/18 05:45:33;;;;;;;7.32;2.40;;;;;;;6.21;76.89;101670.38;5042623;28;19934;-74
2023/05/18 05:48:39;;;;;;;10.45;2.05;;;;;;;6.11;77.23;101677.44;5042467;28;20428;-73
2023/05/18 05:51:42;;;;;;;8.55;1.77;;;;;;;6.12;77.42;101681.75;5054852;28;20516;-72
2023/05/18 05:54:46;;;;;;;6.93;2.17;;;;;;;6.23;77.71;101679.00;5042082;28;20083;-74
2023/05/18 05:57:49;;;;;;;7.05;1.88;;;;;;;6.34;78.17;101676.22;5039602;28;20047;-73
2023/05/18 06:00:52;;;;;;;;;;;;;;;6.40;78.14;101676.13;5054755;28;20060;-71
2023/05/18 06:03:56;;;;;;;6.93;2.30;;;;;;;6.56;78.15;101676.72;5042279;28;19976;-73
2023/05/18 06:07:00;;;;;;;5.35;1.75;;;;;;;6.71;77.55;101682.53;5042401;28;20048;-72
2023/05/18 06:10:05;;;;;;;5.15;1.58;;;;;;;6.84;78.20;101677.09;5054469;28;20067;-72
2023/05/18 06:13:09;;;;;;;7.15;1.70;;;;;;;6.91;77.87;101673.50;5054116;28;20051;-72
2023/05/18 06:16:19;;;;;;;8.80;2.25;;;;;;;6.95;77.69;101681.19;5042076;28;20606;-72
2023/05/18 06:19:26;;;;;;;11.32;2.63;;;;;;;7.15;77.54;101680.84;5041869;28;20566;-72
2023/05/18 06:22:31;;;;;;;6.78;2.22;;;;;;;7.36;76.93;101681.28;5030368;28;20080;-73
2023/05/18 06:25:53;;;;;;;10.25;2.28;;;;;;;7.56;76.19;101681.75;5042121;28;20047;-72
2023/05/18 06:29:07;;;;;;;12.32;1.98;;;;;;;7.77;75.30;101685.63;5042158;28;20056;-72
2023/05/18 06:32:40;;;;;;;12.85;2.47;;;;;;;7.85;72.72;101681.09;5041756;28;20043;-72
2023/05/18 06:35:43;;;;;;;15.15;3.35;;;;;;;7.98;72.48;101681.69;5041634;28;20110;-72
2023/05/18 06:38:47;;;;;;;10.30;2.35;;;;;;;8.07;71.74;101686.69;5053213;28;20140;-72
2023/05/18 06:41:51;;;;;;;;;;;;;;;8.23;70.75;101688.91;5040215;28;20044;-73
2023/05/18 06:45:03;;;;;;;9.35;2.38;;;;;;;8.18;68.66;101688.19;5040231;28;19967;-72
2023/05/18 06:48:27;;;;;;;;;;;;;;;8.29;69.05;101684.41;5053176;28;20067;-72
2023/05/18 06:51:31;;;;;;;13.70;3.33;;;;;;;8.38;68.35;101681.59;5040330;28;19924;-71
2023/05/18 06:54:36;;;;;;;12.55;2.88;;;;;;;8.41;68.95;101683.28;5040132;28;20044;-73
2023/05/18 06:57:40;;;;;;;11.85;2.53;;;;;;;8.50;67.78;101677.84;5029016;28;20520;-73
2023/05/18 07:00:45;;;;;;;10.18;3.13;;;;;;;8.50;67.07;101669.19;5038107;28;20056;-73
2023/05/18 07:03:48;;;;;;;10.35;2.50;;;;;;;8.63;66.65;101675.78;5021280;28;20571;-73
2023/05/18 07:06:54;;;;;;;;;;;;;;;8.60;67.38;101676.72;5033832;28;20079;-74
2023/05/18 07:09:57;;;;;;;14.82;3.10;;;;;;;8.78;66.49;101666.72;5033542;28;19919;-73
2023/05/18 07:13:01;;;;;;;10.70;2.72;;;;;;;8.87;66.20;101673.41;5033351;28;20044;-73
2023/05/18 07:16:05;;;;;;;7.93;2.10;;;;;;;8.97;65.60;101675.75;5033205;28;20048;-73
2023/05/18 07:19:08;;;;;;;11.55;2.70;;;;;;;9.02;64.55;101667.78;5033498;28;20476;-72
2023/05/18 07:22:11;;;;;;;;;;;;;;;9.03;65.31;101665.16;5033588;28;20044;-74
2023/05/18 07:25:16;;;;;;;9.15;2.45;;;;;;;9.16;65.37;101664.81;5032573;28;19967;-75
2023/05/18 07:28:20;;;;;;;10.45;2.38;;;;;;;9.30;65.39;101663.50;5033024;28;20040;-75
2023/05/18 07:31:25;;;;;;;10.90;2.55;;;;;;;9.25;64.70;101664.53;5021209;28;20120;-74
2023/05/18 07:34:30;;;;;;;12.32;2.70;;;;;;;9.38;65.00;101651.97;5033046;28;20052;-74
2023/05/18 07:37:34;;;;;;;13.35;2.60;;;;;;;9.45;64.40;101657.00;5021017;28;20056;-74
2023/05/18 07:40:37;;;;;;;8.35;2.65;;;;;;;9.58;64.69;101654.03;5032892;28;20064;-73
2023/05/18 07:47:30;;;;;;;14.13;3.13;;;;;;;9.88;63.06;101658.28;5032839;28;20052;-73
2023/05/18 07:50:33;;;;;;;8.68;2.90;;;;;;;9.88;62.65;101650.44;5032976;28;20044;-74
2023/05/18 07:53:37;;;;;;;11.35;2.70;;;;;;;9.86;62.21;101654.88;5032683;28;20096;-73
2023/05/18 07:56:41;;;;;;;7.30;2.63;;;;;;;9.94;62.02;101654.63;5032301;28;20112;-74
2023/05/18 07:59:44;;;;;;;;;;;;;;;10.00;62.11;101650.06;5032225;28;20057;-72
2023/05/18 08:02:47;;;;;;;12.90;2.63;;;;;;;10.21;62.14;101645.03;5051583;28;19996;-81
2023/05/18 08:05:52;;;;;;;8.70;2.00;;;;;;;10.33;62.16;101630.75;5052631;28;20083;-77
2023/05/18 08:08:55;;;;;;;;;;;;;;;10.51;63.82;101639.75;5053059;28;20122;-76
2023/05/18 08:11:58;;;;;;;12.00;2.25;;;;;;;10.76;63.26;101631.91;5052819;28;19920;-78
2023/05/18 08:15:02;;;;;;;11.00;2.55;;;;;;;11.09;62.55;101630.66;5052535;28;20512;-76
2023/05/18 08:18:07;;;;;;;11.95;3.15;;;;;;;11.08;61.10;101630.75;5052425;28;20044;-73
2023/05/18 08:21:11;;;;;;;;;;;;;;;11.22;61.06;101628.44;5052902;28;20047;-74
2023/05/18 08:24:15;;;;;;;12.10;3.15;;;;;;;11.29;59.98;101629.91;5052692;28;20026;-76
2023/05/18 08:27:18;;;;;;;;;;;;;;;11.29;58.47;101632.53;5053091;28;20519;-75
2023/05/18 08:30:22;;;;;;;9.38;2.47;;;;;;;11.55;60.72;101621.09;5052380;28;19919;-73
2023/05/18 08:33:25;;;;;;;;;;;;;;;11.68;59.30;101616.22;5052315;28;20052;-71
2023/05/18 08:36:32;;;;;;;8.57;3.60;;;;;;;11.71;59.19;101616.09;5052553;28;19970;-72
2023/05/18 08:39:36;;;;;;;11.80;2.50;;;;;;;11.73;59.01;101609.03;5056409;28;20561;-71
2023/05/18 08:43:01;;;;;;;11.38;2.50;;;;;;;11.84;58.52;101606.88;5056314;28;20087;-71
2023/05/18 08:46:20;;;;;;;7.22;2.20;;;;;;;11.98;58.05;101608.94;5056354;28;20051;-70
2023/05/18 08:49:25;;;;;;;10.25;2.45;;;;;;;12.07;56.90;101611.16;5055968;28;20516;-70
2023/05/18 08:52:36;;;;;;;9.25;2.60;;;;;;;12.08;56.39;101612.03;5055923;28;20178;-71
2023/05/18 08:55:42;;;;;;;11.55;2.25;;;;;;;12.03;57.07;101606.13;5055879;28;20102;-70
2023/05/18 08:58:49;;;;;;;9.55;2.22;;;;;;;12.37;55.43;101602.94;5055832;28;20039;-71
2023/05/18 09:01:53;;;;;;;10.23;2.17;;;;;;;12.62;58.05;101605.34;5055110;28;20051;-73
2023/05/18 09:04:57;;;;;;;10.60;2.67;;;;;;;12.84;55.83;101593.91;5054480;28;20076;-76
2023/05/18 09:08:02;;;;;;;10.75;2.50;;;;;;;12.74;53.80;101599.56;5055893;28;20135;-72
2023/05/18 09:11:05;;;;;;;10.10;2.35;;;;;;;12.48;53.15;101590.22;5055627;28;20507;-72
2023/05/18 09:14:09;;;;;;;10.52;2.63;;;;;;;12.45;53.90;101584.25;5055434;28;20094;-73
2023/05/18 09:17:14;;;;;;;13.15;2.75;;;;;;;12.55;54.03;101585.56;5054805;28;20463;-73
2023/05/18 09:20:19;;;;;;;11.82;2.80;;;;;;;12.64;52.47;101582.53;5055521;28;20044;-73
2023/05/18 09:23:23;;;;;;;10.80;2.10;;;;;;;12.69;51.60;101582.31;5055267;28;20134;-75
2023/05/18 09:26:26;;;;;;;12.27;2.35;;;;;;;12.85;51.88;101583.34;5052859;28;20067;-74
2023/05/18 09:29:29;;;;;;;10.88;2.70;;;;;;;12.85;51.61;101579.88;5053240;28;20036;-75
2023/05/18 09:32:35;;;;;;;13.00;2.83;;;;;;;12.93;51.18;101572.50;5049181;28;20047;-73
2023/05/18 09:35:39;;;;;;;9.43;2.40;;;;;;;13.01;51.23;101576.47;5050705;28;20044;-72
2023/05/18 09:38:46;;;;;;;13.07;2.72;;;;;;;13.40;51.51;101579.97;5051584;28;20052;-74
2023/05/18 09:41:56;;;;;;;11.98;2.45;;;;;;;13.34;50.20;101567.16;5053527;28;20048;-74
2023/05/18 09:45:02;;;;;;;11.52;2.28;;;;;;;13.10;45.61;101572.56;5050646;28;20400;-73
2023/05/18 09:48:06;;;;;;;13.98;2.70;;;;;;;13.19;46.95;101569.53;5047679;28;20044;-73
2023/05/18 09:51:17;;;;;;;8.80;2.38;;;;;;;13.21;46.43;101567.69;5054414;28;20051;-75
2023/05/18 09:54:20;;;;;;;13.77;2.83;;;;;;;13.11;46.61;101560.28;5042540;28;20052;-74
2023/05/18 09:57:24;;;;;;;12.70;2.55;;;;;;;13.31;44.97;101559.41;5054766;28;20043;-77
2023/05/18 10:00:28;;;;;;;8.68;2.15;;;;;;;13.42;45.41;101562.38;5054460;28;20079;-77
2023/05/18 10:03:37;;;;;;;7.03;2.10;;;;;;;13.51;44.63;101559.31;5020911;28;20060;-75
2023/05/18 10:06:48;;;;;;;12.38;2.40;;;;;;;13.72;46.02;101567.94;5022285;28;20044;-74
2023/05/18 10:10:01;;;;;;;8.18;2.17;;;;;;;13.64;44.79;101560.41;5028521;28;20422;-74
2023/05/18 10:13:04;;;;;;;8.55;1.75;;;;;;;13.48;43.27;101565.56;5031773;28;20052;-74
2023/05/18 10:16:08;;;;;;;8.20;2.00;;;;;;;13.37;42.67;101557.34;5033093;28;20049;-73
2023/05/18 10:19:12;;;;;;;11.15;2.63;;;;;;;13.37;42.52;101540.72;5028248;28;20448;-74
2023/05/18 10:22:19;;;;;;;7.35;1.83;;;;;;;13.39;44.73;101558.09;5029126;28;20090;-74
2023/05/18 10:25:26;;;;;;;9.43;3.03;;;;;;;13.85;43.38;101549.78;5031292;28;20045;-73
2023/05/18 10:28:47;;;;;;;9.38;2.55;;;;;;;13.68;44.23;101527.78;5032732;28;20091;-75
2023/05/18 10:31:53;;;;;;;;;;;;;;;13.77;43.95;101528.28;5028659;28;20052;-74
2023/05/18 10:34:56;;;;;;;;;;;;;;;13.93;43.67;101529.22;5029568;28;19928;-73
2023/05/18 10:38:00;;;;;;;8.75;2.03;;;;;;;13.99;42.78;101522.81;5027191;28;19940;-74
2023/05/18 10:41:04;;;;;;;10.93;2.90;;;;;;;14.04;43.72;101521.66;5031163;28;20162;-73
2023/05/18 10:44:09;;;;;;;6.82;2.28;;;;;;;14.27;44.27;101517.81;5029511;28;20508;-73
2023/05/18 10:47:14;;;;;;;10.82;2.63;;;;;;;14.12;42.37;101516.81;5027682;28;20048;-74
2023/05/18 10:50:18;;;;;;;8.70;2.25;;;;;;;14.28;44.63;101521.31;5029217;28;20066;-74
2023/05/18 10:53:23;;;;;;;8.35;2.33;;;;;;;14.49;42.09;101522.81;5030231;28;20044;-74
2023/05/18 10:56:27;;;;;;;8.10;2.10;;;;;;;14.44;42.78;101519.56;5031538;28;20548;-77
2023/05/18 10:59:32;;;;;;;8.15;2.15;;;;;;;14.59;43.78;101513.53;5026978;28;20057;-73
2023/05/18 11:02:41;;;;;;;7.47;2.42;;;;;;;14.53;42.26;101520.91;5045544;28;20128;-71
2023/05/18 11:06:02;;;;;;;8.27;2.42;;;;;;;14.55;43.44;101509.38;5050907;28;20120;-72
2023/05/18 11:09:05;;;;;;;8.40;2.22;;;;;;;14.77;42.94;101505.56;5050692;28;20055;-72
2023/05/18 11:12:12;;;;;;;10.20;2.40;;;;;;;14.80;42.71;101502.75;5051519;28;20425;-72
2023/05/18 11:15:18;;;;;;;9.13;2.42;;;;;;;14.83;41.40;101499.97;5048310;28;20047;-72
2023/05/18 11:18:45;;;;;;;9.07;2.58;;;;;;;14.91;42.59;101489.88;5049928;28;20051;-71
2023/05/18 11:21:50;;;;;;;8.73;2.20;;;;;;;14.86;42.96;101494.53;5034747;28;20087;-72
2023/05/18 11:24:57;;;;;;;11.23;2.10;;;;;;;15.21;44.17;101494.38;5047274;28;20491;-73
2023/05/18 11:28:15;;;;;;;10.80;3.03;;;;;;;15.10;43.42;101494.97;5049607;28;20443;-72
2023/05/18 11:31:20;;;;;;;10.57;2.50;;;;;;;15.38;43.08;101498.66;5012836;28;20156;-72
2023/05/18 11:34:45;;;;;;;11.07;2.95;;;;;;;15.24;43.01;101491.56;5012901;28;20041;-71
2023/05/18 11:37:51;;;;;;;9.43;2.53;;;;;;;15.24;43.09;101478.38;5012880;28;20057;-69
2023/05/18 11:40:58;;;;;;;9.10;2.22;;;;;;;15.42;43.30;101477.34;5012853;28;20406;-71
2023/05/18 11:44:41;;;;;;;5.60;2.08;;;;;;;15.49;42.80;101481.31;5013234;28;20045;-71
2023/05/18 11:47:46;;;;;;;7.78;2.45;;;;;;;15.44;43.02;101491.25;5012754;28;20049;-73
2023/05/18 11:50:53;;;;;;;9.35;2.58;;;;;;;15.46;42.40;101480.66;5013181;28;20088;-71
2023/05/18 11:54:00;;;;;;;9.43;2.00;;;;;;;15.45;42.80;101471.06;5042167;28;20474;-73
2023/05/18 11:57:04;;;;;;;8.65;2.60;;;;;;;15.50;42.90;101468.97;5048638;28;20472;-72
2023/05/18 12:00:11;;;;;;;8.88;2.05;;;;;;;15.67;43.05;101463.63;5049851;28;20052;-73
2023/05/18 12:03:24;;;;;;;11.13;2.20;;;;;;;15.86;42.74;101460.75;5027319;28;20104;-74
2023/05/18 12:06:28;;;;;;;12.13;2.85;;;;;;;15.95;41.79;101468.13;5030132;28;20048;-71
2023/05/18 12:09:32;;;;;;;12.18;3.05;;;;;;;15.97;41.77;101463.59;5019364;28;20453;-75
2023/05/18 12:12:43;;;;;;;9.38;2.50;;;;;;;16.08;41.88;101452.41;5017550;28;20048;-74
2023/05/18 12:15:55;;;;;;;12.32;3.15;;;;;;;16.35;41.70;101463.06;5033993;28;20125;-75
2023/05/18 12:19:08;;;;;;;10.15;2.10;;;;;;;16.40;41.85;101463.63;5035992;28;20628;-72
2023/05/18 12:22:13;;;;;;;8.95;2.58;;;;;;;16.46;41.09;101450.03;5035217;28;20044;-71
2023/05/18 12:25:24;;;;;;;9.65;2.20;;;;;;;16.49;40.92;101459.53;5020434;28;20044;-73
2023/05/18 12:28:27;;;;;;;9.23;2.67;;;;;;;16.64;40.94;101447.19;5030473;28;20045;-72
2023/05/18 12:31:34;;;;;;;8.30;2.95;;;;;;;16.61;39.60;101442.94;5031353;28;20043;-72
2023/05/18 12:34:38;;;;;;;9.13;2.35;;;;;;;16.34;39.06;101445.53;5031485;28;20072;-72
2023/05/18 12:37:43;;;;;;;6.97;1.92;;;;;;;16.37;38.96;101440.06;5032841;28;20052;-72
2023/05/18 12:40:47;;;;;;;7.32;2.50;;;;;;;16.72;40.69;101439.66;5034419;28;20127;-72
2023/05/18 12:43:53;;;;;;;8.02;2.28;;;;;;;17.19;40.26;101433.09;5031876;28;20036;-72
2023/05/18 12:46:56;;;;;;;8.43;2.28;;;;;;;17.31;38.55;101432.28;5033274;28;20049;-72
2023/05/18 12:50:02;;;;;;;6.43;2.17;;;;;;;17.51;38.22;101430.94;5034461;28;20401;-72
2023/05/18 12:53:06;;;;;;;8.50;2.58;;;;;;;17.55;37.57;101419.25;5030522;28;20076;-72
2023/05/18 12:56:10;;;;;;;5.78;2.05;;;;;;;17.70;37.03;101421.78;5035871;28;20048;-71
2023/05/18 12:59:17;;;;;;;9.70;2.35;;;;;;;17.91;36.22;101430.09;5035685;28;20107;-71
2023/05/18 13:02:32;;;;;;;6.68;2.40;;;;;;;18.18;36.62;101433.47;5038786;28;20084;-71
2023/05/18 13:05:36;;;;;;;7.53;2.10;;;;;;;18.47;37.49;101420.81;5055659;28;20067;-72
2023/05/18 13:08:40;;;;;;;10.93;2.92;;;;;;;18.48;36.30;101430.47;5055637;28;20043;-73
2023/05/18 13:11:49;;;;;;;8.75;2.58;;;;;;;18.68;36.34;101410.50;5055433;28;20070;-72
2023/05/18 13:14:52;;;;;;;9.73;2.35;;;;;;;18.97;34.91;101405.75;5055529;28;20044;-72
2023/05/18 13:17:57;;;;;;;6.75;2.35;;;;;;;18.94;36.15;101407.78;5055365;28;20047;-72
2023/05/18 13:21:01;;;;;;;10.25;2.30;;;;;;;18.88;35.74;101400.28;5042902;28;20536;-73
2023/05/18 13:24:05;;;;;;;7.43;2.45;;;;;;;19.07;35.68;101397.97;5014178;28;20044;-72
2023/05/18 13:27:08;;;;;;;8.23;2.50;;;;;;;18.58;35.31;101382.97;5015637;28;20076;-74
2023/05/18 13:30:11;;;;;;;9.07;2.85;;;;;;;19.05;35.38;101387.47;5015488;28;20053;-72
2023/05/18 13:33:16;;;;;;;8.77;2.53;;;;;;;19.26;34.71;101385.00;5015462;28;20049;-72
2023/05/18 13:36:23;;;;;;;9.07;3.22;;;;;;;19.52;34.33;101384.84;5015423;28;20455;-73
2023/05/18 13:39:27;;;;;;;6.22;2.63;;;;;;;19.46;34.33;101382.66;5020283;28;20175;-73
2023/05/18 13:42:32;;;;;;;9.02;2.65;;;;;;;19.37;34.41;101383.34;5035051;28;20525;-73
2023/05/18 13:45:36;;;;;;;8.23;2.80;;;;;;;19.82;33.54;101371.06;5035484;28;20048;-73
2023/05/18 13:48:41;;;;;;;7.63;2.63;;;;;;;19.67;33.55;101367.78;5034935;28;20107;-71
2023/05/18 13:51:46;;;;;;;10.05;2.33;;;;;;;20.07;32.33;101369.13;5040469;28;20063;-72
2023/05/18 13:54:50;;;;;;;8.20;3.33;;;;;;;20.32;33.91;101357.41;5054608;28;20048;-72
2023/05/18 13:57:54;;;;;;;9.57;3.05;;;;;;;21.28;32.43;101352.16;5054703;28;20579;-72
2023/05/18 14:00:57;;;;;;;9.77;3.15;;;;;;;21.68;30.81;101343.47;5054201;28;20465;-72
2023/05/18 14:04:01;;;;;;;7.75;2.17;;;;;;;21.98;30.10;101345.25;5054730;28;20463;-71
2023/05/18 14:07:04;;;;;;;10.18;2.78;;;;;;;22.47;29.57;101340.97;5047677;28;20124;-72
2023/05/18 14:10:12;;;;;;;7.07;2.35;;;;;;;22.54;28.31;101335.09;5034598;28;20072;-73
2023/05/18 14:13:19;;;;;;;9.52;2.33;;;;;;;25.06;25.69;101323.50;5034695;28;20056;-74
2023/05/18 14:16:22;;;;;;;7.32;2.72;;;;;;;26.97;23.87;101329.34;5034444;28;20048;-74
2023/05/18 14:19:26;;;;;;;7.18;2.42;;;;;;;27.79;22.31;101322.06;5034304;28;20137;-74
2023/05/18 14:22:30;;;;;;;7.93;2.20;;;;;;;27.33;22.16;101326.31;5033934;28;20048;-73
2023/05/18 14:25:34;;;;;;;6.65;2.60;;;;;;;28.36;22.16;101318.22;5034492;28;20044;-73
2023/05/18 14:28:37;;;;;;;6.72;2.60;;;;;;;29.68;21.93;101326.94;5034305;28;20095;-72
2023/05/18 14:31:40;;;;;;;11.45;2.17;;;;;;;29.35;20.88;101313.75;5033682;28;20044;-73
2023/05/18 14:34:43;;;;;;;6.78;2.40;;;;;;;30.80;19.00;101307.69;5033771;28;20044;-73
2023/05/18 14:37:46;;;;;;;6.55;1.92;;;;;;;29.19;20.59;101313.94;5053382;28;20566;-73
2023/05/18 14:40:50;;;;;;;7.95;2.67;;;;;;;29.82;18.59;101311.75;5054062;28;20044;-73